createdAt,value
2019-03-17T00:01:18.654Z,99.90
2019-03-17T00:03:46.619Z,99.90
2019-03-17T00:06:15.064Z,99.90
2019-03-17T00:08:42.602Z,99.90
2019-03-17T00:11:10.376Z,99.90
2019-03-17T00:13:37.907Z,99.90
2019-03-17T00:16:05.440Z,99.90
2019-03-17T00:18:33.555Z,99.90
2019-03-17T00:21:01.081Z,99.90
2019-03-17T00:23:28.875Z,99.90
2019-03-17T00:25:56.428Z,99.90
2019-03-17T00:28:26.486Z,99.90
2019-03-17T00:30:57.650Z,99.90
2019-03-17T00:33:28.365Z,99.90
2019-03-17T00:36:18.810Z,99.90
2019-03-17T00:38:46.325Z,99.90
2019-03-17T00:41:16.378Z,99.90
2019-03-17T00:43:43.953Z,99.90
2019-03-17T00:46:11.656Z,99.90
2019-03-17T00:48:39.708Z,99.90
2019-03-17T00:51:07.783Z,99.90
2019-03-17T00:53:38.563Z,99.90
2019-03-17T00:56:06.127Z,99.90
2019-03-17T00:58:34.048Z,99.90
2019-03-17T01:01:04.598Z,99.90
2019-03-17T01:03:32.110Z,99.90
2019-03-17T01:05:59.830Z,99.90
2019-03-17T01:08:27.517Z,99.90
2019-03-17T01:10:57.439Z,99.90
2019-03-17T01:13:25.043Z,99.90
2019-03-17T01:15:52.530Z,99.90
2019-03-17T01:18:20.109Z,99.90
2019-03-17T01:20:47.715Z,99.90
2019-03-17T01:23:15.209Z,99.90
2019-03-17T01:25:42.743Z,99.90
2019-03-17T01:28:10.301Z,99.90
2019-03-17T01:30:37.961Z,99.90
2019-03-17T01:33:08.551Z,99.90
2019-03-17T01:35:36.045Z,99.90
2019-03-17T01:38:03.619Z,99.90
2019-03-17T01:40:31.266Z,99.90
2019-03-17T01:42:58.849Z,99.90
2019-03-17T01:45:26.763Z,99.90
2019-03-17T01:47:54.338Z,99.90
2019-03-17T01:50:21.846Z,99.90
2019-03-17T01:52:49.522Z,99.90
2019-03-17T01:55:17.005Z,99.90
2019-03-17T01:57:44.499Z,99.90
2019-03-17T02:00:12.160Z,99.90
2019-03-17T02:02:39.654Z,99.90
2019-03-17T02:05:07.226Z,99.90
2019-03-17T02:07:34.726Z,99.90
2019-03-17T02:10:02.656Z,99.90
2019-03-17T02:12:30.160Z,99.90
2019-03-17T02:14:57.683Z,99.90
2019-03-17T02:17:25.241Z,99.90
2019-03-17T02:19:52.790Z,99.90
2019-03-17T02:22:22.256Z,99.90
2019-03-17T02:24:49.610Z,99.90
2019-03-17T02:27:17.153Z,99.90
2019-03-17T02:29:44.680Z,99.90
2019-03-17T02:32:12.230Z,99.90
2019-03-17T02:34:39.818Z,99.90
2019-03-17T02:37:07.374Z,99.90
2019-03-17T02:39:34.870Z,99.90
2019-03-17T02:42:02.373Z,99.90
2019-03-17T02:44:29.910Z,99.90
2019-03-17T02:46:57.426Z,99.90
2019-03-17T02:49:24.965Z,99.90
2019-03-17T02:51:52.451Z,99.90
2019-03-17T02:54:19.969Z,99.90
2019-03-17T02:56:47.456Z,99.90
2019-03-17T02:59:14.958Z,99.90
2019-03-17T03:01:42.507Z,99.90
2019-03-17T03:04:10.026Z,99.90
2019-03-17T03:06:37.502Z,99.90
2019-03-17T03:09:06.332Z,99.90
2019-03-17T03:11:33.823Z,99.90
2019-03-17T03:14:01.302Z,99.90
2019-03-17T03:16:28.844Z,99.90
2019-03-17T03:18:56.395Z,99.90
2019-03-17T03:21:23.913Z,99.90
2019-03-17T03:23:51.427Z,99.90
2019-03-17T03:26:18.935Z,99.90
2019-03-17T03:28:46.460Z,99.90
2019-03-17T03:31:14.029Z,99.90
2019-03-17T03:33:41.570Z,99.90
2019-03-17T03:36:11.730Z,99.90
2019-03-17T03:38:38.710Z,99.90
2019-03-17T03:41:06.242Z,99.90
2019-03-17T03:43:34.044Z,99.90
2019-03-17T03:46:01.798Z,99.90
2019-03-17T03:48:29.308Z,99.90
2019-03-17T03:50:56.830Z,99.90
2019-03-17T03:53:24.353Z,99.90
2019-03-17T03:55:52.158Z,99.90
2019-03-17T03:58:19.640Z,99.90
2019-03-17T04:00:47.169Z,99.90
2019-03-17T04:03:14.708Z,99.90
2019-03-17T04:05:42.249Z,99.90
2019-03-17T04:08:09.745Z,99.90
2019-03-17T04:10:37.265Z,99.90
2019-03-17T04:13:04.841Z,99.90
2019-03-17T04:15:32.319Z,99.90
2019-03-17T04:17:59.933Z,99.90
2019-03-17T04:20:27.399Z,99.90
2019-03-17T04:22:54.889Z,99.90
2019-03-17T04:25:22.386Z,99.90
2019-03-17T04:27:49.872Z,99.90
2019-03-17T04:30:17.372Z,99.90
2019-03-17T04:32:44.904Z,99.90
2019-03-17T04:35:12.423Z,99.90
2019-03-17T04:37:39.947Z,99.90
2019-03-17T04:40:08.537Z,99.90
2019-03-17T04:42:36.106Z,99.90
2019-03-17T04:45:04.013Z,99.90
2019-03-17T04:47:31.477Z,99.90
2019-03-17T04:49:58.995Z,99.90
2019-03-17T04:52:26.473Z,99.90
2019-03-17T04:54:53.994Z,99.90
2019-03-17T04:57:21.512Z,99.90
2019-03-17T04:59:49.114Z,99.90
2019-03-17T05:02:16.790Z,99.90
2019-03-17T05:04:44.297Z,99.90
2019-03-17T05:07:11.782Z,99.90
2019-03-17T05:09:39.328Z,99.90
2019-03-17T05:12:06.861Z,99.90
2019-03-17T05:14:34.349Z,99.90
2019-03-17T05:17:01.886Z,99.90
2019-03-17T05:19:29.381Z,99.90
2019-03-17T05:21:56.867Z,99.90
2019-03-17T05:24:24.394Z,99.90
2019-03-17T05:26:51.876Z,99.90
2019-03-17T05:29:19.392Z,99.90
2019-03-17T05:31:46.929Z,99.90
2019-03-17T05:34:14.452Z,99.90
2019-03-17T05:36:41.977Z,99.90
2019-03-17T05:39:09.502Z,99.90
2019-03-17T05:41:36.990Z,99.90
2019-03-17T05:44:04.520Z,99.90
2019-03-17T05:46:32.058Z,99.90
2019-03-17T05:48:59.576Z,99.90
2019-03-17T05:51:27.411Z,99.90
2019-03-17T05:53:54.930Z,99.90
2019-03-17T05:56:22.454Z,99.90
2019-03-17T05:58:49.940Z,99.90
2019-03-17T06:01:17.500Z,99.90
2019-03-17T06:03:45.035Z,99.90
2019-03-17T06:06:12.513Z,99.90
2019-03-17T06:08:40.022Z,99.90
2019-03-17T06:11:07.569Z,99.90
2019-03-17T06:13:35.105Z,99.90
2019-03-17T06:16:02.695Z,99.90
2019-03-17T06:18:30.565Z,99.90
2019-03-17T06:20:58.059Z,99.90
2019-03-17T06:23:25.545Z,99.90
2019-03-17T06:25:53.061Z,99.90
2019-03-17T06:28:21.652Z,99.90
2019-03-17T06:30:49.411Z,99.90
2019-03-17T06:33:16.898Z,99.90
2019-03-17T06:35:44.422Z,99.90
2019-03-17T06:38:11.952Z,99.90
2019-03-17T06:40:39.490Z,99.90
2019-03-17T06:43:06.975Z,99.90
2019-03-17T06:45:34.536Z,99.90
2019-03-17T06:48:02.043Z,99.90
2019-03-17T06:50:29.605Z,99.90
2019-03-17T06:52:57.234Z,99.90
2019-03-17T06:55:24.741Z,99.90
2019-03-17T06:57:52.261Z,99.90
2019-03-17T07:00:19.823Z,99.90
2019-03-17T07:02:47.317Z,99.90
2019-03-17T07:05:14.834Z,99.90
2019-03-17T07:07:44.300Z,99.90
2019-03-17T07:10:11.918Z,99.90
2019-03-17T07:12:39.512Z,99.90
2019-03-17T07:15:07.170Z,99.90
2019-03-17T07:17:34.809Z,99.90
2019-03-17T07:20:02.433Z,99.90
2019-03-17T07:22:29.935Z,99.90
2019-03-17T07:24:57.471Z,99.90
2019-03-17T07:27:25.032Z,99.90
2019-03-17T07:29:52.820Z,99.90
2019-03-17T07:32:20.610Z,99.90
2019-03-17T07:34:48.080Z,99.90
2019-03-17T07:37:15.579Z,99.90
2019-03-17T07:39:43.095Z,99.90
2019-03-17T07:42:10.690Z,99.90
2019-03-17T07:44:38.406Z,99.90
2019-03-17T07:47:05.889Z,99.90
2019-03-17T07:49:33.377Z,99.90
2019-03-17T07:52:00.866Z,99.90
2019-03-17T07:54:28.429Z,99.90
2019-03-17T07:56:55.907Z,99.90
2019-03-17T07:59:23.382Z,99.90
2019-03-17T08:01:50.901Z,99.90
2019-03-17T08:04:18.402Z,99.90
2019-03-17T08:06:45.891Z,99.90
2019-03-17T08:09:13.444Z,99.90
2019-03-17T08:11:40.940Z,99.90
2019-03-17T08:14:08.426Z,99.90
2019-03-17T08:16:35.907Z,99.90
2019-03-17T08:19:03.363Z,99.90
2019-03-17T08:21:30.897Z,99.90
2019-03-17T08:23:58.406Z,99.90
2019-03-17T08:26:26.260Z,99.90
2019-03-17T08:28:53.746Z,99.90
2019-03-17T08:31:23.574Z,99.80
2019-03-17T08:33:51.122Z,99.90
2019-03-17T08:36:18.611Z,99.40
2019-03-17T08:38:46.139Z,99.20
2019-03-17T08:41:13.637Z,99.20
2019-03-17T08:43:53.505Z,99.30
2019-03-17T08:46:10.487Z,99.90
2019-03-17T08:48:38.006Z,99.90
2019-03-17T08:51:05.559Z,98.60
2019-03-17T08:53:33.190Z,98.50
2019-03-17T08:56:00.695Z,95.50
2019-03-17T08:58:28.173Z,94.20
2019-03-17T09:00:55.670Z,92.40
2019-03-17T09:03:23.261Z,88.70
2019-03-17T09:05:50.832Z,88.20
2019-03-17T09:08:18.360Z,80.20
2019-03-17T09:10:45.907Z,73.20
2019-03-17T09:13:13.382Z,71.90
2019-03-17T09:15:40.869Z,62.70
2019-03-17T09:18:08.425Z,64.80
2019-03-17T09:20:35.955Z,60.80
2019-03-17T09:23:03.442Z,63.40
2019-03-17T09:25:31.230Z,63.60
2019-03-17T09:27:58.741Z,72.00
2019-03-17T09:30:26.231Z,78.00
2019-03-17T09:32:53.743Z,71.00
2019-03-17T09:35:21.224Z,71.60
2019-03-17T09:37:48.842Z,72.70
2019-03-17T09:40:16.382Z,80.00
2019-03-17T09:42:43.900Z,72.40
2019-03-17T09:45:11.524Z,75.20
2019-03-17T09:47:41.096Z,67.50
2019-03-17T09:50:09.084Z,71.50
2019-03-17T09:52:36.682Z,70.80
2019-03-17T09:55:04.276Z,67.20
2019-03-17T09:57:32.135Z,66.40
2019-03-17T09:59:59.619Z,69.20
2019-03-17T10:02:27.120Z,68.30
2019-03-17T10:04:54.672Z,64.40
2019-03-17T10:07:22.162Z,69.90
2019-03-17T10:09:49.659Z,62.00
2019-03-17T10:12:17.202Z,58.20
2019-03-17T10:14:44.710Z,56.20
2019-03-17T10:17:12.281Z,54.80
2019-03-17T10:19:39.817Z,54.60
2019-03-17T10:22:07.347Z,54.40
2019-03-17T10:24:34.884Z,56.70
2019-03-17T10:27:02.382Z,54.80
2019-03-17T10:29:29.920Z,54.70
2019-03-17T10:31:57.595Z,53.90
2019-03-17T10:34:25.165Z,57.30
2019-03-17T10:36:52.775Z,57.20
2019-03-17T10:39:20.349Z,55.60
2019-03-17T10:41:47.810Z,52.00
2019-03-17T10:44:15.321Z,51.00
2019-03-17T10:46:42.838Z,49.80
2019-03-17T10:49:10.392Z,46.50
2019-03-17T10:51:37.923Z,49.10
2019-03-17T10:54:05.442Z,48.40
2019-03-17T10:56:33.004Z,47.80
2019-03-17T10:59:00.544Z,47.90
2019-03-17T11:01:28.060Z,50.20
2019-03-17T11:03:55.609Z,51.40
2019-03-17T11:06:23.101Z,48.20
2019-03-17T11:08:50.587Z,48.40
2019-03-17T11:11:18.211Z,49.80
2019-03-17T11:13:45.752Z,46.60
2019-03-17T11:16:13.276Z,48.40
2019-03-17T11:18:40.825Z,48.90
2019-03-17T11:21:08.838Z,45.50
2019-03-17T11:23:36.403Z,47.60
2019-03-17T11:26:03.922Z,46.40
2019-03-17T11:28:31.517Z,49.90
2019-03-17T11:30:59.703Z,48.90
2019-03-17T11:33:27.224Z,48.60
2019-03-17T11:35:55.523Z,49.50
2019-03-17T11:38:23.103Z,44.60
2019-03-17T11:40:50.584Z,44.70
2019-03-17T11:43:18.068Z,46.80
2019-03-17T11:45:45.565Z,45.80
2019-03-17T11:48:13.059Z,45.80
2019-03-17T11:50:40.556Z,51.50
2019-03-17T11:53:08.073Z,47.40
2019-03-17T11:55:35.550Z,44.70
2019-03-17T11:58:03.068Z,42.60
2019-03-17T12:00:30.557Z,43.20
2019-03-17T12:02:58.108Z,41.20
2019-03-17T12:05:25.676Z,40.80
2019-03-17T12:07:53.183Z,39.40
2019-03-17T12:10:20.720Z,45.10
2019-03-17T12:12:48.216Z,41.70
2019-03-17T12:15:15.850Z,44.10
2019-03-17T12:17:43.338Z,45.10
2019-03-17T12:20:11.160Z,46.30
2019-03-17T12:22:38.737Z,45.70
2019-03-17T12:25:07.599Z,44.60
2019-03-17T12:27:35.196Z,48.70
2019-03-17T12:30:03.269Z,48.70
2019-03-17T12:32:30.861Z,44.60
2019-03-17T12:34:58.379Z,46.80
2019-03-17T12:37:25.889Z,48.50
2019-03-17T12:40:02.000Z,49.20
2019-03-17T12:42:22.710Z,50.30
2019-03-17T12:44:50.305Z,49.10
2019-03-17T12:47:17.807Z,49.70
2019-03-17T12:49:45.296Z,49.40
2019-03-17T12:52:12.807Z,51.30
2019-03-17T12:54:40.349Z,49.30
2019-03-17T12:57:07.853Z,48.90
2019-03-17T12:59:35.342Z,53.10
2019-03-17T13:02:02.876Z,51.10
2019-03-17T13:04:30.675Z,53.10
2019-03-17T13:06:58.153Z,52.90
2019-03-17T13:09:25.655Z,49.90
2019-03-17T14:07:22.275Z,50.20
2019-03-17T14:09:49.781Z,49.50
2019-03-17T14:12:17.307Z,51.70
2019-03-17T14:14:46.859Z,54.60
2019-03-17T14:17:14.120Z,49.80
2019-03-17T14:19:42.041Z,48.80
2019-03-17T14:22:09.542Z,48.00
2019-03-17T14:24:37.028Z,51.90
2019-03-17T14:27:04.532Z,49.90
2019-03-17T14:29:33.142Z,49.90
2019-03-17T14:32:00.795Z,51.00
2019-03-17T14:34:28.614Z,50.50
2019-03-17T14:36:56.114Z,51.20
2019-03-17T14:39:23.615Z,51.80
2019-03-17T14:41:51.132Z,52.80
2019-03-17T14:44:18.667Z,52.50
2019-03-17T14:46:46.144Z,53.80
2019-03-17T14:49:13.638Z,54.30
2019-03-17T14:51:41.156Z,53.50
2019-03-17T14:54:08.618Z,52.80
2019-03-17T14:56:36.356Z,54.40
2019-03-17T14:59:03.838Z,55.70
2019-03-17T15:01:31.307Z,54.70
2019-03-17T15:03:58.822Z,54.60
2019-03-17T15:06:26.363Z,55.70
2019-03-17T15:08:53.839Z,54.90
2019-03-17T15:11:21.382Z,54.90
2019-03-17T15:13:49.036Z,55.90
2019-03-17T15:16:16.716Z,56.70
2019-03-17T15:18:44.306Z,58.30
2019-03-17T15:21:11.938Z,57.60
2019-03-17T15:23:39.561Z,59.20
2019-03-17T15:26:07.353Z,59.60
2019-03-17T15:28:34.841Z,60.40
2019-03-17T15:31:11.410Z,61.60
2019-03-17T15:33:31.731Z,61.80
2019-03-17T15:35:59.283Z,65.00
2019-03-17T15:38:26.803Z,66.40
2019-03-17T15:40:54.317Z,68.50
2019-03-17T15:43:21.848Z,72.70
2019-03-17T15:45:49.619Z,75.80
2019-03-17T15:48:17.243Z,78.00
2019-03-17T15:50:44.882Z,77.30
2019-03-17T15:53:12.410Z,79.00
2019-03-17T15:55:40.932Z,82.60
2019-03-17T15:58:08.578Z,83.20
2019-03-17T16:00:36.067Z,79.20
2019-03-17T16:03:03.893Z,78.70
2019-03-17T16:05:31.478Z,80.70
2019-03-17T16:07:59.015Z,82.00
2019-03-17T16:10:26.613Z,84.10
2019-03-17T16:12:54.181Z,84.10
2019-03-17T16:15:21.733Z,86.80
2019-03-17T16:17:49.615Z,94.00
2019-03-17T16:20:18.192Z,99.90
2019-03-17T16:22:45.813Z,99.90
2019-03-17T16:25:13.956Z,99.90
2019-03-17T16:27:41.439Z,99.90
2019-03-17T16:30:16.873Z,99.90
2019-03-17T16:32:44.389Z,99.90
2019-03-17T16:35:12.017Z,99.90
2019-03-17T16:37:39.536Z,99.90
2019-03-17T16:40:08.748Z,99.90
2019-03-17T16:42:36.232Z,99.90
2019-03-17T16:45:04.792Z,99.90
2019-03-17T16:47:32.346Z,99.90
2019-03-17T16:49:59.919Z,99.90
2019-03-17T16:52:27.409Z,99.90
2019-03-17T16:54:55.226Z,99.90
2019-03-17T16:57:22.753Z,99.90
2019-03-17T16:59:50.274Z,99.90
2019-03-17T17:02:17.766Z,99.90
2019-03-17T17:04:45.246Z,99.90
2019-03-17T17:07:12.908Z,99.90
2019-03-17T17:09:40.790Z,99.90
2019-03-17T17:12:08.351Z,99.90
2019-03-17T17:14:35.835Z,99.90
2019-03-17T17:17:03.444Z,99.90
2019-03-17T17:19:31.216Z,99.90
2019-03-17T17:21:59.067Z,99.90
2019-03-17T17:24:26.672Z,99.90
2019-03-17T17:26:54.147Z,99.90
2019-03-17T17:29:21.663Z,99.90
2019-03-17T17:31:49.241Z,99.90
2019-03-17T17:34:16.730Z,99.90
2019-03-17T17:36:44.293Z,99.90
2019-03-17T17:39:11.822Z,99.90
2019-03-17T17:41:39.340Z,99.90
2019-03-17T17:44:06.872Z,99.90
2019-03-17T17:46:34.424Z,99.90
2019-03-17T17:49:01.974Z,99.90
2019-03-17T17:51:29.505Z,99.90
2019-03-17T17:53:56.993Z,99.90
2019-03-17T17:56:24.579Z,99.90
2019-03-17T17:58:52.090Z,99.90
2019-03-17T18:01:19.579Z,99.90
2019-03-17T18:03:51.845Z,99.90
2019-03-17T18:06:16.638Z,99.90
2019-03-17T18:08:44.251Z,99.90
2019-03-17T18:11:11.794Z,99.90
2019-03-17T18:13:39.251Z,99.90
2019-03-17T18:16:06.782Z,99.90
2019-03-17T18:18:34.338Z,99.90
2019-03-17T18:21:01.878Z,99.90
2019-03-17T18:23:29.373Z,99.90
2019-03-17T18:25:56.932Z,99.90
2019-03-17T18:28:24.449Z,99.90
2019-03-17T18:30:51.954Z,99.90
2019-03-17T18:33:19.536Z,99.90
2019-03-17T18:35:47.068Z,99.90
2019-03-17T18:38:14.639Z,99.90
2019-03-17T18:40:42.495Z,99.90
2019-03-17T18:43:10.123Z,99.90
2019-03-17T18:45:37.668Z,99.90
2019-03-17T18:48:05.185Z,99.90
2019-03-17T18:50:33.058Z,99.90
2019-03-17T18:53:00.611Z,99.90
2019-03-17T18:55:28.111Z,99.90
2019-03-17T18:57:55.890Z,99.90
2019-03-17T19:00:23.367Z,99.90
2019-03-17T19:02:50.829Z,99.90
2019-03-17T19:05:20.212Z,99.90
2019-03-17T19:07:47.720Z,99.90
2019-03-17T19:10:15.255Z,99.90
2019-03-17T19:12:45.726Z,99.90
2019-03-17T19:15:13.207Z,99.90
2019-03-17T19:17:40.676Z,99.90
2019-03-17T19:20:09.161Z,99.90
2019-03-17T19:22:36.654Z,99.90
2019-03-17T19:25:05.124Z,99.90
2019-03-17T19:27:32.727Z,99.90
2019-03-17T19:30:00.481Z,99.90
2019-03-17T19:32:28.009Z,99.90
2019-03-17T19:34:55.501Z,99.90
2019-03-17T19:37:23.039Z,99.90
2019-03-17T19:39:50.581Z,99.90
2019-03-17T19:42:18.096Z,99.90
2019-03-17T19:44:45.560Z,99.90
2019-03-17T19:47:13.087Z,99.90
2019-03-17T19:49:40.604Z,99.90
2019-03-17T19:52:08.118Z,99.90
2019-03-17T19:54:35.892Z,99.90
2019-03-17T19:57:03.381Z,99.90
2019-03-17T19:59:31.150Z,99.90
2019-03-17T20:01:58.854Z,99.90
2019-03-17T20:04:31.503Z,99.90
2019-03-17T20:06:55.673Z,99.90
2019-03-17T20:09:23.197Z,99.90
2019-03-17T20:11:50.708Z,99.90
2019-03-17T20:14:18.292Z,99.90
2019-03-17T20:16:45.808Z,99.90
2019-03-17T20:19:13.284Z,99.90
2019-03-17T20:21:40.825Z,99.90
2019-03-17T20:24:08.326Z,99.90
2019-03-17T20:26:35.820Z,99.90
2019-03-17T20:29:03.696Z,99.90
2019-03-17T20:31:31.204Z,99.90
2019-03-17T20:33:58.777Z,99.90
2019-03-17T20:36:26.315Z,99.90
2019-03-17T20:38:53.847Z,99.90
2019-03-17T20:41:21.312Z,99.90
2019-03-17T20:43:48.806Z,99.90
2019-03-17T20:46:16.304Z,99.90
2019-03-17T20:48:43.820Z,99.90
2019-03-17T20:51:11.592Z,99.90
2019-03-17T20:53:39.071Z,99.90
2019-03-17T20:56:06.609Z,99.90
2019-03-17T20:58:34.131Z,99.90
2019-03-17T21:01:01.629Z,99.90
2019-03-17T21:03:29.143Z,99.90
2019-03-17T21:05:56.645Z,99.90
2019-03-17T21:08:24.250Z,99.90
2019-03-17T21:10:51.655Z,99.90
2019-03-17T21:13:19.188Z,99.90
2019-03-17T21:15:46.659Z,99.90
2019-03-17T21:18:14.219Z,99.90
2019-03-17T21:20:41.714Z,99.90
2019-03-17T21:23:09.236Z,99.90
2019-03-17T21:25:36.865Z,99.90
2019-03-17T21:28:04.370Z,99.90
2019-03-17T21:30:31.854Z,99.90
2019-03-17T21:32:59.368Z,99.90
2019-03-17T21:35:26.867Z,99.90
2019-03-17T21:37:54.381Z,99.90
2019-03-17T21:40:21.905Z,99.90
2019-03-17T21:42:49.444Z,99.90
2019-03-17T21:45:16.954Z,99.90
2019-03-17T21:47:44.391Z,99.90
2019-03-17T21:50:13.656Z,99.90
2019-03-17T21:52:41.126Z,99.90
2019-03-17T21:55:08.693Z,99.90
2019-03-17T21:57:36.221Z,99.90
2019-03-17T22:00:04.817Z,99.90
2019-03-17T22:02:32.282Z,99.90
2019-03-17T22:04:59.747Z,99.90
2019-03-17T22:07:27.239Z,99.90
2019-03-17T22:09:54.744Z,99.90
2019-03-17T22:12:22.215Z,99.90
2019-03-17T22:14:49.692Z,99.90
2019-03-17T22:17:17.194Z,99.90
2019-03-17T22:19:44.685Z,99.90
2019-03-17T22:22:12.266Z,99.90
2019-03-17T22:24:39.677Z,99.90
2019-03-17T22:27:07.158Z,99.90
2019-03-17T22:29:34.963Z,99.90
2019-03-17T22:32:02.480Z,99.90
2019-03-17T22:34:29.973Z,99.90
2019-03-17T22:36:57.491Z,99.90
2019-03-17T22:39:25.017Z,99.90
2019-03-17T22:41:52.552Z,99.90
2019-03-17T22:44:25.096Z,99.90
2019-03-17T22:46:49.347Z,99.90
2019-03-17T22:49:16.921Z,99.90
2019-03-17T22:51:44.460Z,99.90
2019-03-17T22:54:11.933Z,99.90
2019-03-17T22:56:39.737Z,99.90
2019-03-17T22:59:07.208Z,99.90
2019-03-17T23:01:34.688Z,99.90
2019-03-17T23:04:03.545Z,99.90
2019-03-17T23:06:31.015Z,99.90
2019-03-17T23:08:58.499Z,99.90
2019-03-17T23:11:26.018Z,99.90
2019-03-17T23:13:53.478Z,99.90
2019-03-17T23:16:21.005Z,99.90
2019-03-17T23:18:48.473Z,99.90
2019-03-17T23:21:15.986Z,99.90
2019-03-17T23:23:43.493Z,99.90
2019-03-17T23:26:10.952Z,99.90
2019-03-17T23:28:38.489Z,99.90
2019-03-17T23:31:05.949Z,99.90
2019-03-17T23:33:33.459Z,99.90
2019-03-17T23:36:00.989Z,99.90
2019-03-17T23:38:28.491Z,99.90
2019-03-17T23:40:55.966Z,99.90
2019-03-17T23:43:23.468Z,99.90
2019-03-17T23:45:50.965Z,99.90
2019-03-17T23:48:18.444Z,99.90
2019-03-17T23:50:45.962Z,99.90
2019-03-17T23:53:13.492Z,99.90
2019-03-17T23:55:41.044Z,99.90
2019-03-17T23:58:08.498Z,99.90
